createdAt,value
2022-09-07T00:02:14.086Z,3.90
2022-09-07T00:04:40.687Z,6.18
2022-09-07T00:07:07.117Z,7.05
2022-09-07T00:09:33.608Z,7.63
2022-09-07T00:12:00.148Z,5.47
2022-09-07T00:14:26.698Z,6.22
2022-09-07T00:16:53.093Z,4.82
2022-09-07T00:19:19.660Z,4.20
2022-09-07T00:21:46.087Z,2.60
2022-09-07T00:24:12.928Z,3.20
2022-09-07T00:26:39.466Z,4.97
2022-09-07T00:29:07.603Z,6.15
2022-09-07T00:31:34.210Z,2.30
2022-09-07T00:34:02.184Z,5.68
2022-09-07T00:36:29.164Z,3.55
2022-09-07T00:38:56.447Z,4.82
2022-09-07T00:41:23.245Z,3.42
2022-09-07T00:43:55.528Z,3.28
2022-09-07T00:46:28.353Z,6.10
2022-09-07T00:49:03.078Z,5.90
2022-09-07T00:51:35.635Z,4.35
2022-09-07T00:54:07.404Z,8.75
2022-09-07T00:56:38.456Z,3.38
2022-09-07T00:59:05.974Z,3.67
2022-09-07T01:01:34.168Z,4.45
2022-09-07T01:04:02.021Z,2.97
2022-09-07T01:06:34.631Z,5.53
2022-09-07T01:09:10.178Z,3.95
2022-09-07T01:11:37.236Z,6.38
2022-09-07T01:14:10.841Z,6.80
2022-09-07T01:17:11.594Z,5.38
2022-09-07T01:20:23.951Z,3.42
2022-09-07T01:23:27.140Z,3.05
2022-09-07T01:26:23.116Z,4.75
2022-09-07T01:28:57.844Z,2.88
2022-09-07T01:31:49.866Z,4.70
2022-09-07T01:34:25.980Z,3.13
2022-09-07T01:37:05.176Z,2.53
2022-09-07T01:40:00.646Z,5.18
2022-09-07T01:42:32.277Z,2.33
2022-09-07T01:45:02.446Z,5.82
2022-09-07T01:47:33.932Z,2.60
2022-09-07T01:50:07.617Z,5.30
2022-09-07T01:52:47.197Z,2.75
2022-09-07T01:55:22.494Z,3.90
2022-09-07T01:57:58.223Z,6.65
2022-09-07T02:00:25.390Z,7.00
2022-09-07T02:02:58.089Z,5.22
2022-09-07T02:05:31.363Z,4.88
2022-09-07T02:08:11.215Z,1.98
2022-09-07T02:10:48.917Z,5.63
2022-09-07T02:13:24.069Z,11.23
2022-09-07T02:16:13.999Z,2.47
2022-09-07T02:18:55.831Z,9.43
2022-09-07T02:21:28.304Z,2.80
2022-09-07T02:24:03.134Z,3.58
2022-09-07T02:26:30.591Z,6.38
2022-09-07T02:28:57.576Z,4.03
2022-09-07T02:31:24.139Z,4.78
2022-09-07T02:33:51.232Z,7.28
2022-09-07T02:36:22.325Z,9.27
2022-09-07T02:38:48.917Z,2.65
2022-09-07T02:41:40.521Z,3.85
2022-09-07T02:44:17.209Z,6.40
2022-09-07T02:47:13.115Z,7.10
2022-09-07T02:49:58.316Z,4.22
2022-09-07T02:52:49.012Z,4.30
2022-09-07T02:55:37.363Z,5.53
2022-09-07T02:58:25.319Z,6.15
2022-09-07T03:01:01.217Z,4.47
2022-09-07T03:03:43.581Z,5.03
2022-09-07T03:06:20.558Z,3.72
2022-09-07T03:08:55.199Z,3.67
2022-09-07T03:11:22.587Z,4.25
2022-09-07T03:13:48.976Z,5.75
2022-09-07T03:16:15.980Z,3.90
2022-09-07T03:18:43.562Z,8.43
2022-09-07T03:21:10.530Z,9.27
2022-09-07T03:23:37.699Z,6.55
2022-09-07T03:26:04.466Z,6.68
2022-09-07T03:28:31.204Z,4.03
2022-09-07T03:30:57.817Z,4.22
2022-09-07T03:33:24.320Z,4.50
2022-09-07T03:35:59.363Z,4.25
2022-09-07T03:38:25.814Z,4.50
2022-09-07T03:41:02.857Z,5.35
2022-09-07T03:43:29.837Z,3.53
2022-09-07T03:46:04.083Z,7.45
2022-09-07T03:48:32.222Z,8.90
2022-09-07T03:51:00.466Z,4.93
2022-09-07T03:53:27.201Z,7.68
2022-09-07T03:56:02.744Z,7.88
2022-09-07T03:58:31.004Z,4.82
2022-09-07T04:00:58.930Z,4.18
2022-09-07T04:03:26.210Z,7.32
2022-09-07T04:05:52.816Z,6.93
2022-09-07T04:08:19.249Z,5.13
2022-09-07T04:10:45.772Z,7.88
2022-09-07T04:13:12.223Z,7.30
2022-09-07T04:15:38.845Z,8.30
2022-09-07T04:18:05.279Z,7.38
2022-09-07T04:20:31.724Z,6.25
2022-09-07T04:22:59.148Z,7.05
2022-09-07T04:25:25.681Z,9.68
2022-09-07T04:27:52.148Z,7.70
2022-09-07T04:30:18.678Z,6.22
2022-09-07T04:32:46.552Z,7.03
2022-09-07T04:35:13.409Z,9.63
2022-09-07T04:37:40.094Z,8.15
2022-09-07T04:40:06.820Z,5.22
2022-09-07T04:42:33.331Z,10.50
2022-09-07T04:44:59.747Z,10.80
2022-09-07T04:47:26.269Z,8.13
2022-09-07T04:49:52.826Z,7.80
2022-09-07T04:52:19.450Z,6.10
2022-09-07T04:54:50.593Z,6.65
2022-09-07T04:57:21.546Z,7.90
2022-09-07T04:59:48.728Z,11.38
2022-09-07T05:02:15.274Z,7.53
2022-09-07T05:04:41.776Z,12.02
2022-09-07T05:07:08.305Z,7.75
2022-09-07T05:09:34.683Z,10.68
2022-09-07T05:12:01.268Z,10.60
2022-09-07T05:14:27.656Z,14.30
2022-09-07T05:16:54.194Z,7.85
2022-09-07T05:19:20.824Z,6.15
2022-09-07T05:21:47.312Z,6.70
2022-09-07T05:24:13.743Z,10.20
2022-09-07T05:26:40.191Z,12.85
2022-09-07T05:31:54.897Z,6.85
2022-09-07T05:36:55.726Z,5.78
2022-09-07T05:39:22.360Z,5.32
2022-09-07T05:41:48.819Z,7.45
2022-09-07T05:47:01.819Z,7.10
2022-09-07T05:49:28.435Z,7.75
2022-09-07T05:51:54.836Z,8.20
2022-09-07T05:54:21.224Z,11.13
2022-09-07T05:56:47.664Z,8.90
2022-09-07T05:59:14.091Z,10.07
2022-09-07T06:01:40.583Z,8.02
2022-09-07T06:04:06.999Z,6.63
2022-09-07T06:06:38.359Z,6.38
2022-09-07T06:09:04.854Z,6.55
2022-09-07T06:11:31.244Z,5.65
2022-09-07T06:13:57.725Z,7.93
2022-09-07T06:16:24.371Z,5.70
2022-09-07T06:18:50.989Z,7.47
2022-09-07T06:21:22.967Z,10.80
2022-09-07T06:23:50.350Z,6.00
2022-09-07T06:26:19.533Z,12.93
2022-09-07T06:28:50.143Z,9.25
2022-09-07T06:31:19.851Z,8.25
2022-09-07T06:33:49.805Z,10.00
2022-09-07T06:36:21.752Z,8.15
2022-09-07T06:38:49.036Z,9.43
2022-09-07T06:44:07.264Z,9.13
2022-09-07T06:49:20.299Z,7.68
2022-09-07T06:51:46.926Z,7.60
2022-09-07T06:56:59.998Z,5.38
2022-09-07T06:59:26.416Z,6.72
2022-09-07T07:01:52.951Z,7.03
2022-09-07T07:04:19.405Z,8.43
2022-09-07T07:06:46.118Z,7.22
2022-09-07T07:09:13.955Z,10.98
2022-09-07T07:11:40.708Z,8.52
2022-09-07T07:14:07.091Z,10.18
2022-09-07T07:16:33.625Z,12.55
2022-09-07T07:19:00.228Z,9.55
2022-09-07T07:21:28.973Z,11.02
2022-09-07T07:24:04.991Z,11.60
2022-09-07T07:26:34.712Z,11.18
2022-09-07T07:29:02.803Z,10.50
2022-09-07T07:31:30.410Z,13.60
2022-09-07T07:33:56.913Z,12.38
2022-09-07T07:36:26.669Z,15.30
2022-09-07T07:44:17.494Z,8.90
2022-09-07T07:46:47.660Z,10.77
2022-09-07T07:49:14.268Z,6.22
2022-09-07T07:54:27.079Z,16.45
2022-09-07T07:56:53.500Z,9.80
2022-09-07T07:59:19.895Z,13.13
2022-09-07T08:01:46.558Z,9.95
2022-09-07T08:04:13.106Z,8.85
2022-09-07T08:06:42.535Z,8.75
2022-09-07T08:09:08.949Z,10.27
2022-09-07T08:11:35.404Z,8.68
2022-09-07T08:14:04.789Z,12.60
2022-09-07T08:16:31.349Z,9.20
2022-09-07T08:18:58.060Z,7.32
2022-09-07T08:21:25.136Z,9.07
2022-09-07T08:23:51.664Z,5.88
2022-09-07T08:26:18.069Z,10.98
2022-09-07T08:28:45.624Z,7.38
2022-09-07T08:31:14.870Z,6.50
2022-09-07T08:33:42.191Z,9.57
2022-09-07T08:36:12.765Z,9.63
2022-09-07T08:38:39.977Z,6.90
2022-09-07T08:41:21.279Z,6.03
2022-09-07T08:43:57.947Z,13.18
2022-09-07T08:46:40.351Z,10.50
2022-09-07T08:49:16.396Z,7.15
2022-09-07T08:51:49.273Z,9.40
2022-09-07T08:54:17.004Z,8.10
2022-09-07T08:59:46.421Z,9.77
2022-09-07T09:02:35.140Z,8.65
2022-09-07T09:05:20.385Z,9.82
2022-09-07T09:08:08.744Z,8.85
2022-09-07T09:10:47.062Z,6.65
2022-09-07T09:13:36.123Z,6.95
2022-09-07T09:16:14.175Z,8.77
2022-09-07T09:18:52.235Z,9.98
2022-09-07T09:21:19.405Z,7.75
2022-09-07T09:23:48.513Z,7.95
2022-09-07T09:26:32.280Z,7.18
2022-09-07T09:29:11.316Z,8.52
2022-09-07T09:31:38.225Z,6.65
2022-09-07T09:34:14.916Z,8.35
2022-09-07T09:36:48.475Z,8.30
2022-09-07T09:39:30.716Z,6.43
2022-09-07T09:42:15.146Z,11.10
2022-09-07T09:44:42.808Z,10.82
2022-09-07T09:47:32.368Z,8.20
2022-09-07T09:50:04.378Z,6.55
2022-09-07T09:52:43.957Z,7.10
2022-09-07T09:55:34.947Z,7.93
2022-09-07T10:03:55.290Z,8.52
2022-09-07T10:06:22.682Z,6.80
2022-09-07T10:08:58.058Z,6.28
2022-09-07T10:14:44.368Z,8.52
2022-09-07T10:17:23.622Z,5.78
2022-09-07T10:19:50.073Z,8.25
2022-09-07T10:22:34.777Z,8.85
2022-09-07T10:25:02.364Z,7.95
2022-09-07T10:27:30.739Z,6.70
2022-09-07T10:29:58.210Z,7.25
2022-09-07T10:32:58.850Z,9.85
2022-09-07T10:35:29.760Z,11.65
2022-09-07T10:38:15.058Z,12.38
2022-09-07T10:41:02.455Z,6.72
2022-09-07T10:43:49.660Z,7.45
2022-09-07T10:47:00.670Z,6.53
2022-09-07T10:49:40.928Z,9.20
2022-09-07T10:52:22.671Z,7.20
2022-09-07T10:55:09.924Z,8.73
2022-09-07T10:57:54.954Z,9.07
2022-09-07T11:00:22.954Z,5.70
2022-09-07T11:03:29.051Z,8.10
2022-09-07T11:06:17.607Z,7.40
2022-09-07T11:09:17.350Z,5.60
2022-09-07T11:12:04.876Z,9.57
2022-09-07T11:14:38.560Z,6.45
2022-09-07T11:17:16.985Z,7.93
2022-09-07T11:19:50.255Z,5.55
2022-09-07T11:22:29.538Z,5.85
2022-09-07T11:25:36.629Z,10.50
2022-09-07T11:28:41.270Z,8.45
2022-09-07T11:31:23.117Z,5.68
2022-09-07T11:36:57.033Z,6.20
2022-09-07T11:39:30.117Z,4.18
2022-09-07T11:42:42.691Z,6.00
2022-09-07T11:44:55.903Z,4.50
2022-09-07T11:47:38.874Z,5.30
2022-09-07T11:50:15.415Z,7.10
2022-09-07T11:52:45.649Z,4.05
2022-09-07T11:55:21.306Z,4.80
2022-09-07T11:58:00.027Z,6.47
2022-09-07T12:00:54.019Z,4.20
2022-09-07T12:03:30.240Z,5.82
2022-09-07T12:06:24.899Z,5.78
2022-09-07T12:09:06.492Z,5.75
2022-09-07T12:12:04.339Z,7.05
2022-09-07T12:14:42.838Z,4.55
2022-09-07T12:17:37.652Z,6.70
2022-09-07T12:20:12.675Z,7.63
2022-09-07T12:22:55.560Z,4.75
2022-09-07T12:25:22.216Z,7.05
2022-09-07T12:27:49.291Z,8.73
2022-09-07T12:30:15.622Z,4.70
2022-09-07T12:32:57.020Z,4.15
2022-09-07T12:35:28.124Z,4.65
2022-09-07T12:38:01.785Z,4.43
2022-09-07T12:40:28.501Z,4.93
2022-09-07T12:43:13.455Z,4.82
2022-09-07T12:45:39.802Z,5.72
2022-09-07T12:48:15.474Z,2.78
2022-09-07T12:54:18.144Z,4.90
2022-09-07T12:57:29.682Z,4.10
2022-09-07T13:00:12.375Z,4.07
2022-09-07T13:02:41.932Z,6.25
2022-09-07T13:05:36.918Z,9.18
2022-09-07T13:08:38.765Z,6.07
2022-09-07T13:11:26.088Z,2.92
2022-09-07T13:14:08.887Z,4.60
2022-09-07T13:19:50.419Z,4.47
2022-09-07T13:22:29.057Z,8.18
2022-09-07T13:24:56.889Z,5.10
2022-09-07T13:27:43.539Z,3.08
2022-09-07T13:30:16.599Z,5.25
2022-09-07T13:35:31.824Z,4.90
2022-09-07T13:38:03.238Z,5.45
2022-09-07T13:40:40.505Z,5.00
2022-09-07T13:43:14.352Z,4.82
2022-09-07T13:45:53.269Z,7.53
2022-09-07T13:48:27.872Z,3.92
2022-09-07T13:51:15.427Z,7.95
2022-09-07T13:54:06.387Z,6.32
2022-09-07T13:57:02.468Z,4.93
2022-09-07T13:59:33.323Z,5.55
2022-09-07T14:01:59.973Z,6.80
2022-09-07T14:04:32.638Z,8.13
2022-09-07T14:07:06.560Z,5.90
2022-09-07T14:09:34.256Z,8.27
2022-09-07T14:12:00.747Z,5.03
2022-09-07T14:14:32.945Z,4.68
2022-09-07T14:16:59.404Z,6.22
2022-09-07T14:19:42.512Z,9.27
2022-09-07T14:22:17.713Z,9.00
2022-09-07T14:24:49.879Z,5.95
2022-09-07T14:27:38.339Z,6.35
2022-09-07T14:30:26.611Z,6.20
2022-09-07T14:33:02.032Z,5.60
2022-09-07T14:35:33.629Z,7.70
2022-09-07T14:39:04.009Z,6.47
2022-09-07T14:41:13.788Z,10.05
2022-09-07T14:43:52.716Z,5.68
2022-09-07T14:46:33.068Z,7.43
2022-09-07T14:49:02.802Z,9.27
2022-09-07T14:51:35.949Z,4.47
2022-09-07T14:54:05.803Z,5.45
2022-09-07T14:56:38.707Z,6.05
2022-09-07T14:59:27.383Z,6.43
2022-09-07T15:02:24.005Z,6.30
2022-09-07T15:05:26.035Z,6.95
2022-09-07T15:08:02.126Z,4.53
2022-09-07T15:10:32.248Z,11.73
2022-09-07T15:13:00.299Z,7.95
2022-09-07T15:15:37.679Z,5.13
2022-09-07T15:18:46.933Z,6.20
2022-09-07T15:21:13.599Z,7.22
2022-09-07T15:23:40.212Z,9.48
2022-09-07T15:26:09.882Z,6.85
2022-09-07T15:31:54.363Z,8.88
2022-09-07T15:34:18.373Z,7.95
2022-09-07T15:36:50.451Z,6.43
2022-09-07T15:39:19.564Z,5.00
2022-09-07T15:41:45.945Z,6.85
2022-09-07T15:44:13.853Z,6.97
2022-09-07T15:46:41.888Z,10.73
2022-09-07T15:49:08.851Z,7.80
2022-09-07T15:54:21.986Z,9.20
2022-09-07T15:59:34.842Z,7.32
2022-09-07T16:02:01.947Z,5.40
2022-09-07T16:04:29.181Z,6.80
2022-09-07T16:06:55.657Z,6.03
2022-09-07T16:09:22.230Z,7.47
2022-09-07T16:11:50.174Z,9.35
2022-09-07T16:14:17.811Z,8.32
2022-09-07T16:19:34.634Z,5.93
2022-09-07T16:22:01.971Z,6.45
2022-09-07T16:24:28.794Z,6.93
2022-09-07T16:26:55.327Z,8.32
2022-09-07T16:29:21.748Z,8.65
2022-09-07T16:34:34.700Z,9.43
2022-09-07T16:37:01.163Z,8.10
2022-09-07T16:39:29.123Z,8.50
2022-09-07T16:41:55.760Z,7.45
2022-09-07T16:44:22.230Z,7.30
2022-09-07T16:46:48.769Z,9.73
2022-09-07T16:49:16.623Z,10.85
2022-09-07T16:51:43.102Z,8.88
2022-09-07T16:54:11.568Z,8.05
2022-09-07T16:56:39.251Z,7.82
2022-09-07T16:59:09.339Z,9.05
2022-09-07T17:01:40.274Z,7.95
2022-09-07T17:04:10.865Z,8.65
2022-09-07T17:06:38.247Z,9.85
2022-09-07T17:09:05.057Z,8.50
2022-09-07T17:11:33.910Z,11.32
2022-09-07T17:14:01.173Z,8.48
2022-09-07T17:16:29.997Z,6.68
2022-09-07T17:21:46.436Z,9.82
2022-09-07T17:24:12.933Z,7.15
2022-09-07T17:26:42.150Z,11.10
2022-09-07T17:29:09.568Z,10.05
2022-09-07T17:34:23.859Z,8.00
2022-09-07T17:36:50.305Z,7.45
2022-09-07T17:39:18.572Z,11.60
2022-09-07T17:41:46.606Z,9.57
2022-09-07T17:44:13.794Z,8.15
2022-09-07T17:46:40.530Z,7.75
2022-09-07T17:49:08.621Z,13.10
2022-09-07T17:51:35.846Z,8.98
2022-09-07T17:54:09.643Z,9.20
2022-09-07T17:56:36.970Z,10.43
2022-09-07T18:01:50.560Z,8.65
2022-09-07T18:04:17.159Z,9.15
2022-09-07T18:06:43.653Z,10.02
2022-09-07T18:09:10.999Z,11.88
2022-09-07T18:11:46.258Z,9.30
2022-09-07T18:14:14.289Z,7.10
2022-09-07T18:16:40.893Z,9.82
2022-09-07T18:19:08.571Z,10.57
2022-09-07T18:21:37.102Z,10.75
2022-09-07T18:24:07.415Z,8.55
2022-09-07T18:26:36.002Z,9.35
2022-09-07T18:29:04.069Z,12.10
2022-09-07T18:31:31.446Z,13.05
2022-09-07T18:33:58.452Z,11.70
2022-09-07T18:36:26.132Z,9.15
2022-09-07T18:38:53.416Z,12.05
2022-09-07T18:41:20.955Z,10.75
2022-09-07T18:43:47.959Z,10.05
2022-09-07T18:46:15.977Z,12.88
2022-09-07T18:48:42.832Z,11.32
2022-09-07T18:51:10.054Z,10.80
2022-09-07T18:53:37.347Z,13.35
2022-09-07T18:56:15.116Z,8.50
2022-09-07T18:58:42.073Z,11.10
2022-09-07T19:01:11.074Z,10.35
2022-09-07T19:03:38.308Z,11.07
2022-09-07T19:06:13.023Z,13.02
2022-09-07T19:08:41.381Z,12.55
2022-09-07T19:11:19.687Z,9.85
2022-09-07T19:13:46.235Z,10.60
2022-09-07T19:16:16.550Z,9.38
2022-09-07T19:18:47.845Z,10.30
2022-09-07T19:21:17.023Z,11.48
2022-09-07T19:23:43.458Z,10.95
2022-09-07T19:26:10.386Z,12.98
2022-09-07T19:28:36.840Z,10.30
2022-09-07T19:31:07.332Z,10.85
2022-09-07T19:33:37.972Z,9.07
2022-09-07T19:36:05.772Z,12.40
2022-09-07T19:38:32.557Z,10.85
2022-09-07T19:41:00.273Z,11.48
2022-09-07T19:43:31.209Z,14.10
2022-09-07T19:45:57.650Z,11.80
2022-09-07T19:48:24.019Z,12.70
2022-09-07T19:50:50.793Z,11.02
2022-09-07T19:53:17.933Z,10.75
2022-09-07T19:55:44.724Z,14.77
2022-09-07T19:58:12.453Z,11.20
2022-09-07T20:00:41.359Z,11.80
2022-09-07T20:03:11.187Z,15.63
2022-09-07T20:05:39.555Z,12.10
2022-09-07T20:08:06.930Z,10.45
2022-09-07T20:10:34.037Z,15.00
2022-09-07T20:13:00.470Z,15.30
2022-09-07T20:15:27.340Z,12.77
2022-09-07T20:17:53.899Z,12.77
2022-09-07T20:20:21.233Z,11.68
2022-09-07T20:22:47.986Z,11.10
2022-09-07T20:25:14.468Z,16.98
2022-09-07T20:27:42.412Z,12.43
2022-09-07T20:30:09.310Z,12.43
2022-09-07T20:32:35.762Z,12.32
2022-09-07T20:35:02.301Z,12.95
2022-09-07T20:37:28.732Z,13.63
2022-09-07T20:39:55.238Z,9.30
2022-09-07T20:42:21.699Z,10.77
2022-09-07T20:44:48.062Z,16.98
2022-09-07T20:47:14.507Z,14.32
2022-09-07T20:49:40.894Z,19.05
2022-09-07T20:52:07.263Z,10.65
2022-09-07T20:54:33.828Z,11.55
2022-09-07T20:57:03.809Z,13.27
2022-09-07T20:59:30.635Z,14.88
2022-09-07T21:01:57.241Z,12.02
2022-09-07T21:04:26.233Z,12.43
2022-09-07T21:06:52.776Z,10.95
2022-09-07T21:09:19.819Z,14.82
2022-09-07T21:11:49.704Z,10.35
2022-09-07T21:14:17.708Z,15.38
2022-09-07T21:16:44.335Z,10.48
2022-09-07T21:19:13.475Z,11.85
2022-09-07T21:21:41.521Z,10.90
2022-09-07T21:24:20.159Z,11.18
2022-09-07T21:26:47.596Z,13.73
2022-09-07T21:29:23.570Z,15.43
2022-09-07T21:31:52.099Z,11.82
2022-09-07T21:34:18.692Z,13.90
2022-09-07T21:36:45.928Z,13.15
2022-09-07T21:39:14.829Z,14.75
2022-09-07T21:41:41.694Z,13.02
2022-09-07T21:44:08.116Z,12.13
2022-09-07T21:46:34.672Z,12.43
2022-09-07T21:49:01.999Z,11.85
2022-09-07T21:51:28.680Z,12.82
2022-09-07T21:53:57.123Z,16.85
2022-09-07T21:56:23.840Z,11.07
2022-09-07T21:58:57.889Z,12.25
2022-09-07T22:01:26.117Z,12.10
2022-09-07T22:03:55.767Z,12.57
2022-09-07T22:06:23.144Z,13.25
2022-09-07T22:08:50.070Z,11.75
2022-09-07T22:11:19.571Z,11.38
2022-09-07T22:13:46.142Z,13.32
2022-09-07T22:16:13.788Z,12.70
2022-09-07T22:18:43.776Z,11.88
2022-09-07T22:21:11.766Z,13.00
2022-09-07T22:23:40.945Z,11.68
2022-09-07T22:26:08.298Z,11.40
2022-09-07T22:28:37.113Z,11.40
2022-09-07T22:31:18.683Z,13.57
2022-09-07T22:33:46.572Z,12.05
2022-09-07T22:36:13.503Z,10.15
2022-09-07T22:38:41.665Z,13.25
2022-09-07T22:41:10.126Z,11.63
2022-09-07T22:43:37.103Z,13.82
2022-09-07T22:46:04.323Z,13.55
2022-09-07T22:48:31.215Z,10.75
2022-09-07T22:50:59.483Z,12.57
2022-09-07T22:53:27.799Z,12.27
2022-09-07T22:55:54.906Z,12.00
2022-09-07T22:58:23.593Z,15.80
2022-09-07T23:00:51.272Z,13.98
2022-09-07T23:03:18.337Z,12.18
2022-09-07T23:05:44.815Z,14.10
2022-09-07T23:08:11.280Z,12.13
2022-09-07T23:10:38.119Z,11.50
2022-09-07T23:13:05.131Z,14.05
2022-09-07T23:15:31.486Z,17.73
2022-09-07T23:17:57.934Z,14.45
2022-09-07T23:20:25.492Z,15.45
2022-09-07T23:22:52.555Z,15.55
2022-09-07T23:25:19.275Z,15.20
2022-09-07T23:27:45.751Z,12.50
2022-09-07T23:30:12.851Z,13.40
2022-09-07T23:32:39.302Z,12.95
2022-09-07T23:35:06.898Z,12.30
2022-09-07T23:37:33.277Z,17.92
2022-09-07T23:39:59.762Z,15.02
2022-09-07T23:42:26.151Z,14.52
2022-09-07T23:44:52.600Z,16.88
2022-09-07T23:47:19.056Z,16.30
2022-09-07T23:49:45.399Z,13.45
2022-09-07T23:52:12.846Z,12.77
2022-09-07T23:54:39.772Z,15.88
2022-09-07T23:57:06.305Z,14.60
2022-09-07T23:59:33.796Z,15.45
